Time;durP1;ratioP1;P1;durP2;ratioP2;P2;SDS_P1;SDS_P2;PMS_P1;PMS_P2;Temp;Humidity;BMP_temperature;BMP_pressure;BME280_temperature;BME280_humidity;BME280_pressure;Samples;Min_cycle;Max_cycle;Signal;HPM_P1;HPM_P2
2021/08/14 00:02:14;;;;;;;8.43;5.28;;;23.40;82.00;;;;;;5011973;28;20620;-63
2021/08/14 00:04:59;;;;;;;6.97;5.30;;;23.30;82.00;;;;;;5012781;28;20068;-62
2021/08/14 00:07:45;;;;;;;8.32;5.30;;;23.20;82.00;;;;;;5012934;28;20022;-63
2021/08/14 00:10:31;;;;;;;10.57;5.35;;;23.20;82.10;;;;;;4998229;28;20475;-63
2021/08/14 00:12:57;;;;;;;6.28;4.60;;;23.10;82.00;;;;;;5008671;28;20128;-63
2021/08/14 00:15:41;;;;;;;7.68;4.65;;;23.10;81.80;;;;;;5012139;28;20532;-63
2021/08/14 00:18:25;;;;;;;8.73;5.35;;;23.10;81.90;;;;;;5013372;28;20044;-63
2021/08/14 00:21:09;;;;;;;7.85;4.45;;;23.10;81.90;;;;;;5011453;28;20426;-63
2021/08/14 00:23:53;;;;;;;8.10;4.75;;;23.10;81.80;;;;;;5013936;28;20044;-63
2021/08/14 00:26:38;;;;;;;7.10;4.68;;;23.00;81.60;;;;;;5010399;28;20033;-63
2021/08/14 00:29:22;;;;;;;6.15;4.88;;;23.10;81.10;;;;;;5004144;28;20552;-63
2021/08/14 00:32:06;;;;;;;8.07;4.22;;;23.00;80.80;;;;;;4993020;28;20072;-64
2021/08/14 00:34:50;;;;;;;8.05;4.90;;;23.00;80.60;;;;;;5005392;28;20513;-64
2021/08/14 00:37:34;;;;;;;5.85;4.20;;;22.90;80.60;;;;;;5012734;28;20099;-63
2021/08/14 00:40:19;;;;;;;9.82;4.57;;;22.80;80.40;;;;;;5011069;28;20146;-64
2021/08/14 00:43:03;;;;;;;6.53;4.35;;;22.80;80.30;;;;;;5011508;28;20061;-63
2021/08/14 00:45:47;;;;;;;6.10;4.38;;;22.80;80.40;;;;;;5001268;28;20069;-64
2021/08/14 00:48:31;;;;;;;6.50;4.40;;;22.80;80.40;;;;;;4989735;28;20045;-63
2021/08/14 00:51:15;;;;;;;6.75;4.38;;;22.80;80.50;;;;;;5011337;28;20045;-63
2021/08/14 00:53:59;;;;;;;6.35;4.43;;;22.80;80.40;;;;;;4998592;28;20513;-63
2021/08/14 00:56:44;;;;;;;6.38;4.38;;;22.80;80.30;;;;;;5011408;28;20033;-63
2021/08/14 00:59:29;;;;;;;5.97;3.72;;;22.70;80.10;;;;;;4996907;28;20041;-62
2021/08/14 01:02:15;;;;;;;6.97;4.00;;;22.70;79.90;;;;;;5022001;28;20044;-63
2021/08/14 01:04:59;;;;;;;6.43;4.25;;;22.70;79.90;;;;;;4996846;28;20060;-63
2021/08/14 01:07:43;;;;;;;6.45;4.00;;;22.60;79.90;;;;;;5011485;28;20033;-64
2021/08/14 01:10:27;;;;;;;7.78;4.13;;;22.60;80.00;;;;;;4996581;28;20056;-63
2021/08/14 01:13:11;;;;;;;5.30;3.93;;;22.60;80.10;;;;;;5011165;28;20409;-63
2021/08/14 01:15:55;;;;;;;7.57;4.63;;;22.40;80.40;;;;;;5010738;28;20041;-63
2021/08/14 01:18:41;;;;;;;6.63;4.50;;;22.40;80.60;;;;;;5012153;28;20091;-63
2021/08/14 01:21:25;;;;;;;6.85;4.38;;;22.30;80.80;;;;;;5010853;28;20048;-63
2021/08/14 01:24:09;;;;;;;8.95;5.40;;;22.30;81.00;;;;;;5011712;28;20072;-63
2021/08/14 01:26:57;;;;;;;9.13;4.77;;;22.20;81.50;;;;;;5012262;28;20092;-62
2021/08/14 01:29:42;;;;;;;8.48;5.30;;;22.10;82.30;;;;;;5008925;28;20696;-63
2021/08/14 01:32:26;;;;;;;8.57;4.90;;;22.10;82.70;;;;;;5010184;28;20044;-63
2021/08/14 01:35:10;;;;;;;7.95;4.65;;;22.00;83.10;;;;;;5010989;28;20129;-63
2021/08/14 01:37:54;;;;;;;9.65;5.95;;;21.90;83.60;;;;;;5011116;28;20092;-63
2021/08/14 01:40:38;;;;;;;6.78;5.38;;;21.90;83.90;;;;;;5010966;28;20036;-62
2021/08/14 01:43:22;;;;;;;7.40;4.75;;;21.90;83.90;;;;;;5004802;28;20088;-63
2021/08/14 01:46:06;;;;;;;11.93;4.68;;;21.80;84.20;;;;;;5006742;28;20049;-63
2021/08/14 01:48:51;;;;;;;7.85;4.68;;;21.80;84.30;;;;;;5010196;28;20086;-63
2021/08/14 01:51:42;;;;;;;7.45;4.80;;;21.70;84.60;;;;;;5062092;28;20433;-63
2021/08/14 01:54:26;;;;;;;8.15;5.18;;;21.70;84.90;;;;;;5046909;28;20052;-63
2021/08/14 01:57:00;;;;;;;8.05;5.38;;;21.70;85.20;;;;;;5045392;28;20403;-63
2021/08/14 01:59:44;;;;;;;10.98;5.22;;;21.60;85.30;;;;;;5046362;28;20124;-63
2021/08/14 02:02:30;;;;;;;6.63;5.55;;;21.60;85.50;;;;;;5037795;28;20131;-63
2021/08/14 02:05:14;;;;;;;9.90;5.50;;;21.60;85.70;;;;;;5030292;28;20036;-63
2021/08/14 02:07:58;;;;;;;7.93;4.43;;;21.50;85.80;;;;;;5031216;28;20036;-63
2021/08/14 02:10:42;;;;;;;8.32;5.32;;;21.50;85.70;;;;;;5041766;28;20057;-63
2021/08/14 02:13:28;;;;;;;9.73;4.67;;;21.40;85.90;;;;;;5041522;28;20048;-63
2021/08/14 02:16:13;;;;;;;8.25;5.32;;;21.40;86.00;;;;;;5046819;28;20040;-63
2021/08/14 02:18:58;;;;;;;6.28;4.07;;;21.30;85.80;;;;;;5038184;28;20040;-63
2021/08/14 02:21:42;;;;;;;8.95;4.63;;;21.30;85.70;;;;;;5048041;28;20094;-63
2021/08/14 02:24:26;;;;;;;8.77;4.35;;;21.30;85.70;;;;;;5046238;28;20127;-63
2021/08/14 02:27:10;;;;;;;10.20;5.30;;;21.30;86.00;;;;;;5046489;28;20406;-63
2021/08/14 02:29:54;;;;;;;9.23;4.65;;;21.20;85.90;;;;;;5046985;28;20052;-63
2021/08/14 02:32:38;;;;;;;9.37;4.93;;;21.20;86.00;;;;;;5034684;28;20052;-62
2021/08/14 02:35:22;;;;;;;8.23;4.72;;;21.20;86.40;;;;;;5028125;28;20390;-63
2021/08/14 02:38:06;;;;;;;7.40;4.07;;;21.10;86.50;;;;;;5030639;28;20639;-63
2021/08/14 02:40:50;;;;;;;9.70;5.05;;;21.10;86.60;;;;;;5034806;28;20151;-63
2021/08/14 02:43:35;;;;;;;7.97;4.72;;;21.20;86.90;;;;;;5044694;28;20047;-63
2021/08/14 02:46:20;;;;;;;7.18;4.95;;;21.20;87.10;;;;;;5039766;28;20037;-63
2021/08/14 02:49:04;;;;;;;5.85;4.57;;;21.20;87.40;;;;;;5038677;28;20075;-62
2021/08/14 02:51:48;;;;;;;5.90;4.13;;;21.20;87.40;;;;;;5046725;28;20159;-63
2021/08/14 02:54:32;;;;;;;6.83;4.03;;;21.20;87.50;;;;;;5044223;28;20048;-62
2021/08/14 02:57:16;;;;;;;6.60;4.30;;;21.30;87.60;;;;;;5047619;28;20056;-63
2021/08/14 03:00:00;;;;;;;7.03;4.55;;;21.20;87.60;;;;;;5042119;28;20048;-63
2021/08/14 03:02:44;;;;;;;6.67;4.40;;;21.30;87.60;;;;;;5016353;28;20037;-63
2021/08/14 03:05:29;;;;;;;10.27;5.03;;;21.30;87.50;;;;;;5022555;28;20052;-63
2021/08/14 03:08:13;;;;;;;7.03;4.43;;;21.30;87.60;;;;;;5027233;28;20560;-63
2021/08/14 03:10:57;;;;;;;7.50;3.72;;;21.40;87.40;;;;;;5021666;28;20092;-63
2021/08/14 03:13:41;;;;;;;6.57;3.90;;;21.40;87.30;;;;;;5023245;28;20036;-63
2021/08/14 03:16:25;;;;;;;9.53;4.10;;;21.40;87.30;;;;;;5016770;28;20040;-63
2021/08/14 03:19:09;;;;;;;6.50;4.00;;;21.40;87.00;;;;;;5033097;28;20056;-62
2021/08/14 03:21:53;;;;;;;6.93;3.50;;;21.40;86.90;;;;;;5027506;28;20084;-62
2021/08/14 03:24:38;;;;;;;6.47;4.30;;;21.40;87.00;;;;;;5031907;28;20551;-63
2021/08/14 03:27:22;;;;;;;8.32;3.92;;;21.40;86.80;;;;;;5014093;28;20264;-63
2021/08/14 03:30:07;;;;;;;6.45;4.97;;;21.40;86.80;;;;;;5030163;28;20072;-63
2021/08/14 03:32:52;;;;;;;7.22;3.75;;;21.40;86.80;;;;;;5015005;28;20115;-63
2021/08/14 03:35:36;;;;;;;9.23;4.03;;;21.40;86.60;;;;;;5028068;28;20036;-63
2021/08/14 03:38:21;;;;;;;8.63;3.33;;;21.40;86.50;;;;;;5026763;28;20036;-63
2021/08/14 03:41:06;;;;;;;6.13;3.40;;;21.40;86.30;;;;;;5032894;28;20086;-63
2021/08/14 03:43:51;;;;;;;8.38;3.70;;;21.50;86.30;;;;;;5030955;28;20338;-63
2021/08/14 03:46:35;;;;;;;9.20;3.87;;;21.40;86.10;;;;;;5029977;28;20040;-63
2021/08/14 03:49:19;;;;;;;8.85;3.42;;;21.40;86.10;;;;;;5026578;28;20068;-64
2021/08/14 03:52:03;;;;;;;8.95;4.22;;;21.30;86.10;;;;;;5032805;28;20140;-63
2021/08/14 03:54:48;;;;;;;;;;;21.30;86.10;;;;;;5026523;28;20045;-63
2021/08/14 03:57:33;;;;;;;5.93;3.15;;;21.30;85.80;;;;;;5015181;28;19959;-62
2021/08/14 04:00:17;;;;;;;8.00;4.57;;;21.20;86.00;;;;;;5018689;28;20068;-63
2021/08/14 04:03:03;;;;;;;7.82;3.92;;;21.20;86.10;;;;;;5030890;28;20117;-63
2021/08/14 04:05:49;;;;;;;9.57;3.47;;;21.20;86.20;;;;;;5019214;28;20031;-63
2021/08/14 04:08:35;;;;;;;7.40;3.70;;;21.20;86.20;;;;;;5014198;28;20057;-63
2021/08/14 04:11:20;;;;;;;6.80;3.35;;;21.20;86.20;;;;;;5021595;28;20624;-63
2021/08/14 04:14:06;;;;;;;7.07;3.60;;;21.30;86.20;;;;;;5030300;28;20018;-67
2021/08/14 04:16:52;;;;;;;9.18;4.45;;;21.30;86.10;;;;;;5016977;28;20372;-66
2021/08/14 04:19:38;;;;;;;6.60;3.58;;;21.30;86.00;;;;;;5022942;28;20121;-67
2021/08/14 04:22:24;;;;;;;8.10;3.67;;;21.30;86.00;;;;;;5039734;28;20177;-66
2021/08/14 04:25:10;;;;;;;6.88;3.13;;;21.30;85.90;;;;;;5038567;28;20049;-66
2021/08/14 04:27:55;;;;;;;8.30;3.30;;;21.20;85.90;;;;;;5027400;28;20037;-66
2021/08/14 04:30:41;;;;;;;8.38;3.55;;;21.20;86.00;;;;;;5060847;28;20037;-67
2021/08/14 04:33:27;;;;;;;7.80;4.25;;;21.20;86.10;;;;;;5053383;28;20033;-66
2021/08/14 04:36:13;;;;;;;8.15;3.72;;;21.10;86.50;;;;;;5052139;28;20024;-66
2021/08/14 04:38:59;;;;;;;8.90;3.65;;;21.00;86.40;;;;;;5022723;28;20540;-66
2021/08/14 04:41:44;;;;;;;13.55;4.05;;;21.00;86.80;;;;;;5042535;28;20044;-66
2021/08/14 04:44:30;;;;;;;10.98;3.95;;;21.00;86.90;;;;;;5036135;28;20028;-66
2021/08/14 04:47:16;;;;;;;5.72;3.17;;;21.00;86.90;;;;;;5051934;28;20393;-66
2021/08/14 04:50:03;;;;;;;8.00;3.72;;;21.10;87.10;;;;;;5032136;28;20041;-66
2021/08/14 04:52:49;;;;;;;5.55;3.08;;;21.10;87.40;;;;;;5032376;28;20691;-66
2021/08/14 04:55:35;;;;;;;9.23;4.15;;;21.10;87.40;;;;;;5033150;28;20482;-66
2021/08/14 04:58:21;;;;;;;6.70;3.83;;;21.10;87.00;;;;;;5039120;28;20433;-66
2021/08/14 05:01:06;;;;;;;5.32;3.47;;;21.10;86.80;;;;;;5051106;28;20663;-66
2021/08/14 05:03:52;;;;;;;10.98;3.45;;;21.10;86.70;;;;;;5042023;28;20029;-66
2021/08/14 05:06:39;;;;;;;8.23;3.45;;;21.10;86.50;;;;;;5030393;28;20470;-66
2021/08/14 05:09:25;;;;;;;7.95;3.90;;;21.10;86.90;;;;;;5047535;28;20493;-66
2021/08/14 05:12:11;;;;;;;8.25;3.25;;;21.10;86.90;;;;;;5035873;28;20033;-66
2021/08/14 05:14:56;;;;;;;10.75;4.03;;;21.00;86.70;;;;;;5047412;28;20092;-66
2021/08/14 05:17:42;;;;;;;8.52;3.67;;;21.00;86.80;;;;;;5036632;28;20371;-65
2021/08/14 05:20:28;;;;;;;7.85;4.50;;;21.00;86.80;;;;;;5043217;28;20033;-66
2021/08/14 05:23:14;;;;;;;8.90;4.18;;;21.00;87.00;;;;;;5034597;28;20235;-66
2021/08/14 05:26:00;;;;;;;14.50;3.78;;;21.00;87.10;;;;;;5036554;28;20425;-66
2021/08/14 05:28:45;;;;;;;10.57;3.42;;;21.00;87.20;;;;;;5031837;28;20418;-66
2021/08/14 05:31:31;;;;;;;10.93;4.15;;;21.00;87.40;;;;;;5025913;28;20488;-66
2021/08/14 05:34:17;;;;;;;10.73;4.47;;;21.00;87.40;;;;;;5046807;28;20029;-66
2021/08/14 05:37:03;;;;;;;9.95;3.55;;;21.10;87.40;;;;;;5039258;28;20116;-66
2021/08/14 05:39:49;;;;;;;7.38;3.50;;;21.10;87.80;;;;;;5038097;28;20611;-65
2021/08/14 05:42:35;;;;;;;8.85;3.65;;;21.20;87.70;;;;;;5046685;28;20123;-66
2021/08/14 05:45:20;;;;;;;7.63;4.00;;;21.20;87.70;;;;;;5045118;28;20064;-66
2021/08/14 05:48:07;;;;;;;6.80;3.40;;;21.40;87.50;;;;;;5048925;28;20017;-66
2021/08/14 05:50:53;;;;;;;7.18;3.72;;;21.40;87.40;;;;;;5045095;28;20080;-66
2021/08/14 05:53:39;;;;;;;10.65;4.28;;;21.40;87.40;;;;;;5058515;28;20029;-67
2021/08/14 05:56:24;;;;;;;7.80;3.47;;;21.40;87.20;;;;;;5069100;28;20058;-67
2021/08/14 05:59:08;;;;;;;7.97;3.73;;;21.50;87.40;;;;;;5064743;28;20093;-65
2021/08/14 06:01:52;;;;;;;8.60;4.18;;;21.50;87.50;;;;;;5064742;28;20095;-65
2021/08/14 06:04:36;;;;;;;11.97;4.67;;;21.40;87.50;;;;;;5064522;28;20052;-67
2021/08/14 06:07:20;;;;;;;6.93;3.35;;;21.50;87.70;;;;;;5063162;28;20363;-67
2021/08/14 06:10:06;;;;;;;7.67;3.77;;;21.50;87.50;;;;;;5059925;28;20432;-68
2021/08/14 06:12:50;;;;;;;6.72;3.83;;;21.60;87.60;;;;;;5063268;28;20639;-69
2021/08/14 06:15:34;;;;;;;7.53;3.77;;;21.70;87.90;;;;;;5057862;28;20086;-68
2021/08/14 06:18:18;;;;;;;9.57;4.10;;;21.90;88.00;;;;;;5065747;28;20294;-68
2021/08/14 06:21:02;;;;;;;6.82;3.55;;;22.00;88.30;;;;;;5066793;28;20074;-68
2021/08/14 06:23:46;;;;;;;7.50;3.92;;;22.10;86.90;;;;;;5058705;28;20508;-68
2021/08/14 06:26:30;;;;;;;8.52;3.55;;;22.20;87.00;;;;;;5060379;28;20111;-69
2021/08/14 06:29:14;;;;;;;11.27;4.35;;;22.40;86.80;;;;;;5061054;28;20031;-69
2021/08/14 06:31:59;;;;;;;7.82;4.13;;;22.40;86.70;;;;;;5056508;28;20066;-69
2021/08/14 06:34:43;;;;;;;12.40;4.40;;;22.50;85.90;;;;;;5064539;28;20437;-68
2021/08/14 06:37:27;;;;;;;7.30;4.03;;;22.60;86.20;;;;;;5053874;28;20495;-68
2021/08/14 06:40:13;;;;;;;7.28;3.70;;;22.70;85.80;;;;;;5054430;28;20425;-69
2021/08/14 06:42:57;;;;;;;8.35;3.67;;;22.70;85.00;;;;;;5058343;28;20504;-69
2021/08/14 06:45:41;;;;;;;7.55;3.60;;;22.90;85.20;;;;;;5063459;28;20107;-69
2021/08/14 06:48:25;;;;;;;9.50;3.90;;;22.90;84.80;;;;;;5060818;28;20090;-68
2021/08/14 06:51:13;;;;;;;9.60;4.00;;;23.00;84.50;;;;;;5070720;28;20424;-68
2021/08/14 06:53:59;;;;;;;7.55;4.13;;;23.00;84.10;;;;;;5055544;28;20554;-69
2021/08/14 06:56:43;;;;;;;6.95;3.63;;;23.10;83.90;;;;;;5067861;28;20044;-68
2021/08/14 06:59:27;;;;;;;10.35;4.57;;;23.20;83.70;;;;;;5062479;28;20039;-68
2021/08/14 07:02:11;;;;;;;6.85;3.47;;;23.20;83.90;;;;;;5069426;28;20586;-68
2021/08/14 07:04:57;;;;;;;7.10;3.85;;;23.40;84.00;;;;;;5055581;28;20412;-69
2021/08/14 07:07:42;;;;;;;9.93;4.93;;;23.50;83.20;;;;;;5063929;28;20040;-69
2021/08/14 07:10:26;;;;;;;8.65;3.67;;;23.60;83.10;;;;;;5061487;28;20044;-68
2021/08/14 07:13:10;;;;;;;8.55;3.75;;;23.70;82.70;;;;;;5067783;28;20124;-70
2021/08/14 07:15:36;;;;;;;11.20;3.80;;;23.70;81.60;;;;;;5068520;28;20524;-70
2021/08/14 07:18:01;;;;;;;7.25;3.67;;;23.80;81.30;;;;;;5064815;28;20477;-70
2021/08/14 07:20:27;;;;;;;6.10;3.42;;;23.80;80.80;;;;;;5060846;28;20067;-70
2021/08/14 07:22:52;;;;;;;7.88;3.60;;;23.90;80.40;;;;;;5071247;28;20021;-70
2021/08/14 07:25:18;;;;;;;6.45;3.20;;;23.90;80.40;;;;;;5064104;28;20024;-69
2021/08/14 07:27:43;;;;;;;10.85;3.35;;;24.00;80.10;;;;;;5045973;28;20047;-70
2021/08/14 07:30:09;;;;;;;6.38;3.08;;;24.00;80.40;;;;;;5071886;28;20028;-69
2021/08/14 07:32:36;;;;;;;8.05;3.45;;;24.00;78.90;;;;;;5066434;28;20103;-67
2021/08/14 07:35:02;;;;;;;7.75;3.42;;;24.00;79.00;;;;;;5064472;28;20123;-66
2021/08/14 07:37:28;;;;;;;6.30;2.78;;;24.00;79.20;;;;;;5069163;28;20163;-67
2021/08/14 07:39:54;;;;;;;8.20;3.00;;;24.00;77.80;;;;;;5066584;28;20028;-67
2021/08/14 07:42:19;;;;;;;9.73;2.83;;;24.00;77.20;;;;;;5064929;28;20435;-67
2021/08/14 07:44:45;;;;;;;6.38;3.13;;;24.00;76.40;;;;;;5056276;28;20108;-67
2021/08/14 07:47:11;;;;;;;5.90;2.88;;;23.90;76.30;;;;;;5053180;28;20051;-67
2021/08/14 07:49:36;;;;;;;7.22;2.97;;;23.90;76.20;;;;;;5057071;28;20045;-66
2021/08/14 07:52:02;;;;;;;7.43;3.50;;;23.90;76.30;;;;;;5069100;28;20389;-67
2021/08/14 07:54:28;;;;;;;8.70;2.95;;;23.80;75.40;;;;;;5070290;28;20032;-66
2021/08/14 07:57:12;;;;;;;6.97;2.80;;;23.80;75.10;;;;;;5068677;28;20039;-67
2021/08/14 07:59:58;;;;;;;6.20;3.53;;;23.70;75.60;;;;;;5071507;28;20034;-66
2021/08/14 08:02:43;;;;;;;7.53;2.70;;;23.80;75.80;;;;;;5067472;28;20727;-67
2021/08/14 08:05:28;;;;;;;6.60;2.67;;;23.70;75.50;;;;;;5053084;28;20198;-67
2021/08/14 08:08:12;;;;;;;9.25;3.22;;;23.60;75.50;;;;;;5056035;28;20039;-67
2021/08/14 08:10:56;;;;;;;5.00;2.70;;;23.70;75.60;;;;;;5043532;28;20063;-67
2021/08/14 08:13:40;;;;;;;6.20;2.72;;;23.70;75.70;;;;;;5052118;28;20034;-67
2021/08/14 08:16:06;;;;;;;8.55;2.42;;;23.70;75.30;;;;;;5056575;28;20416;-67
2021/08/14 08:18:31;;;;;;;5.35;3.10;;;23.80;75.30;;;;;;5055248;28;20029;-67
2021/08/14 08:20:57;;;;;;;5.97;3.22;;;23.80;74.40;;;;;;5072669;28;20032;-67
2021/08/14 08:23:23;;;;;;;4.60;2.90;;;23.90;74.50;;;;;;5070825;28;20452;-68
2021/08/14 08:25:48;;;;;;;4.85;2.42;;;23.90;74.30;;;;;;5054514;28;20396;-67
2021/08/14 08:28:22;;;;;;;4.68;2.65;;;23.90;74.20;;;;;;5070746;28;20028;-68
2021/08/14 08:30:49;;;;;;;4.82;2.33;;;24.00;73.60;;;;;;5068923;28;20040;-67
2021/08/14 08:33:15;;;;;;;9.25;3.15;;;24.00;73.40;;;;;;5056408;28;20104;-68
2021/08/14 08:35:40;;;;;;;5.45;3.40;;;24.00;73.00;;;;;;5054301;28;20036;-67
2021/08/14 08:38:05;;;;;;;6.50;2.72;;;24.00;72.80;;;;;;5071058;28;20023;-67
2021/08/14 08:40:41;;;;;;;9.30;2.58;;;24.00;72.80;;;;;;5069034;28;20037;-67
2021/08/14 08:43:08;;;;;;;7.03;2.97;;;24.10;72.50;;;;;;5055659;28;20435;-67
2021/08/14 08:45:34;;;;;;;6.13;2.63;;;24.10;72.70;;;;;;5072134;28;20043;-67
2021/08/14 08:48:06;;;;;;;8.02;2.47;;;24.10;72.00;;;;;;5066808;28;20019;-68
2021/08/14 08:50:32;;;;;;;5.30;3.30;;;24.10;72.20;;;;;;5051678;28;20170;-67
2021/08/14 08:52:58;;;;;;;6.18;3.33;;;24.20;71.60;;;;;;5054256;28;20493;-67
2021/08/14 08:55:24;;;;;;;7.63;3.20;;;24.20;71.30;;;;;;5071736;28;20020;-68
2021/08/14 08:57:50;;;;;;;8.07;3.13;;;24.20;70.80;;;;;;5070571;28;20091;-68
2021/08/14 09:00:17;;;;;;;5.13;3.00;;;24.30;70.10;;;;;;5071399;28;20105;-68
2021/08/14 09:02:44;;;;;;;7.45;3.17;;;24.30;69.60;;;;;;5070544;28;20028;-68
2021/08/14 09:05:18;;;;;;;5.03;2.83;;;24.30;69.70;;;;;;5071291;28;20044;-67
2021/08/14 09:07:47;;;;;;;5.30;3.10;;;24.40;69.60;;;;;;5069884;28;20029;-68
2021/08/14 09:10:24;;;;;;;8.05;3.35;;;24.40;69.30;;;;;;5051761;28;20421;-68
2021/08/14 09:12:50;;;;;;;8.60;2.95;;;24.40;69.00;;;;;;5051725;28;20039;-68
2021/08/14 09:15:27;;;;;;;5.50;2.90;;;24.50;69.40;;;;;;5061497;28;20063;-68
2021/08/14 09:18:00;;;;;;;5.97;3.05;;;24.50;69.00;;;;;;5066398;28;20038;-67
2021/08/14 09:20:26;;;;;;;5.55;3.05;;;24.50;69.10;;;;;;5071443;28;20400;-68
2021/08/14 09:23:02;;;;;;;6.18;2.67;;;24.50;69.90;;;;;;5057983;28;20039;-68
2021/08/14 09:25:41;;;;;;;5.57;2.85;;;24.50;69.10;;;;;;5071366;28;20500;-67
2021/08/14 09:28:08;;;;;;;5.30;3.25;;;24.50;69.30;;;;;;5063405;28;20162;-68
2021/08/14 09:30:49;;;;;;;7.93;3.25;;;24.60;69.10;;;;;;5070957;28;20636;-68
2021/08/14 09:33:17;;;;;;;7.22;4.13;;;24.50;68.70;;;;;;5052062;28;20029;-68
2021/08/14 09:35:44;;;;;;;9.45;3.42;;;24.60;68.50;;;;;;5057251;28;20472;-68
2021/08/14 09:38:46;;;;;;;7.53;3.50;;;24.70;68.30;;;;;;5070407;28;20054;-68
2021/08/14 09:41:30;;;;;;;8.15;3.88;;;24.70;68.70;;;;;;5069302;28;20036;-68
2021/08/14 09:44:15;;;;;;;6.45;2.80;;;24.80;68.50;;;;;;5069695;28;20070;-67
2021/08/14 09:46:59;;;;;;;6.60;2.83;;;24.90;68.70;;;;;;5071528;28;20542;-67
2021/08/14 09:49:55;;;;;;;6.57;2.70;;;25.00;69.50;;;;;;5070203;28;20086;-67
2021/08/14 09:52:41;;;;;;;7.45;2.60;;;25.10;69.40;;;;;;5069929;28;20103;-67
2021/08/14 09:55:26;;;;;;;10.35;3.30;;;25.20;68.50;;;;;;5071123;28;20067;-67
2021/08/14 09:58:10;;;;;;;6.93;2.95;;;25.30;68.20;;;;;;5069953;28;20038;-67
2021/08/14 10:00:56;;;;;;;7.82;3.60;;;25.40;68.10;;;;;;5071165;28;20032;-68
2021/08/14 10:03:40;;;;;;;8.38;2.80;;;25.40;67.50;;;;;;5069627;28;20395;-67
2021/08/14 10:06:26;;;;;;;4.93;2.72;;;25.40;67.20;;;;;;5070190;28;20150;-67
2021/08/14 10:09:10;;;;;;;4.40;2.70;;;25.40;66.70;;;;;;5069092;28;20063;-67
2021/08/14 10:11:55;;;;;;;5.60;3.00;;;25.50;66.40;;;;;;5057760;28;20455;-68
2021/08/14 10:14:41;;;;;;;4.85;3.03;;;25.40;66.70;;;;;;5055211;28;20067;-67
2021/08/14 10:17:25;;;;;;;7.03;3.10;;;25.40;66.00;;;;;;5055157;28;20502;-67
2021/08/14 10:20:10;;;;;;;8.38;2.63;;;25.40;66.20;;;;;;5074803;28;20032;-67
2021/08/14 10:23:03;;;;;;;5.30;2.92;;;25.50;66.10;;;;;;5073811;28;20242;-67
2021/08/14 10:25:56;;;;;;;5.35;2.67;;;25.50;66.60;;;;;;5074876;28;20098;-67
2021/08/14 10:28:46;;;;;;;6.32;2.83;;;25.50;65.80;;;;;;5072862;28;20034;-67
2021/08/14 10:31:30;;;;;;;7.60;3.35;;;25.50;65.10;;;;;;5059410;28;20039;-67
2021/08/14 10:34:14;;;;;;;10.48;3.38;;;25.50;65.50;;;;;;5072975;28;20396;-68
2021/08/14 10:36:59;;;;;;;5.82;3.00;;;25.60;64.70;;;;;;5066774;28;20400;-67
2021/08/14 10:39:55;;;;;;;8.23;2.85;;;25.60;64.70;;;;;;5057621;28;20122;-68
2021/08/14 10:42:53;;;;;;;8.52;3.30;;;25.70;64.50;;;;;;5073494;28;20032;-67
2021/08/14 10:45:38;;;;;;;5.78;3.05;;;25.70;64.60;;;;;;5054625;28;20404;-67
2021/08/14 10:48:54;;;;;;;8.05;3.03;;;25.80;64.40;;;;;;5060409;28;20039;-67
2021/08/14 10:51:51;;;;;;;8.77;3.55;;;25.90;64.80;;;;;;5073821;28;20063;-68
2021/08/14 10:54:55;;;;;;;5.82;2.92;;;25.90;64.30;;;;;;5072784;28;20078;-67
2021/08/14 10:57:44;;;;;;;5.63;3.28;;;25.90;64.90;;;;;;5073716;28;20035;-67
2021/08/14 11:00:28;;;;;;;5.30;2.80;;;26.00;64.50;;;;;;5053690;28;20524;-67
2021/08/14 11:03:13;;;;;;;;;;;26.00;63.90;;;;;;5058615;28;20038;-67
2021/08/14 11:06:26;;;;;;;7.68;3.03;;;26.00;64.40;;;;;;5074432;28;19911;-67
2021/08/14 11:09:16;;;;;;;5.30;2.50;;;26.00;63.90;;;;;;5072373;28;20404;-67
2021/08/14 11:12:02;;;;;;;5.97;2.78;;;26.10;63.80;;;;;;5073777;28;20086;-68
2021/08/14 11:14:47;;;;;;;5.88;2.70;;;26.10;62.80;;;;;;5072801;28;20262;-68
2021/08/14 11:17:35;;;;;;;5.47;2.80;;;26.20;62.30;;;;;;5071612;28;20058;-68
2021/08/14 11:20:19;;;;;;;3.88;2.35;;;26.20;61.50;;;;;;5053847;28;20086;-68
2021/08/14 11:23:23;;;;;;;5.40;2.70;;;26.20;61.50;;;;;;5056212;28;20032;-67
2021/08/14 11:26:09;;;;;;;3.75;2.20;;;26.30;61.50;;;;;;5073814;28;20035;-68
2021/08/14 11:28:53;;;;;;;6.25;2.67;;;26.30;60.80;;;;;;5072003;28;20067;-68
2021/08/14 11:31:37;;;;;;;7.57;3.00;;;26.40;60.80;;;;;;5072804;28;20132;-67
2021/08/14 11:34:22;;;;;;;4.40;2.75;;;26.50;61.50;;;;;;5071954;28;20443;-67
2021/08/14 11:37:06;;;;;;;7.68;2.53;;;26.60;61.00;;;;;;5073518;28;20102;-67
2021/08/14 11:39:54;;;;;;;;;;;26.60;60.20;;;;;;5070384;28;20058;-68
2021/08/14 11:42:40;;;;;;;3.92;2.13;;;26.60;60.80;;;;;;5070571;28;20313;-68
2021/08/14 11:45:27;;;;;;;5.32;2.80;;;26.60;59.70;;;;;;5052693;28;20041;-68
2021/08/14 11:48:17;;;;;;;5.22;2.92;;;26.60;58.80;;;;;;5056922;28;20020;-68
2021/08/14 11:51:03;;;;;;;5.60;2.70;;;26.70;58.20;;;;;;5071368;28;20451;-68
2021/08/14 11:54:06;;;;;;;5.18;3.05;;;26.60;57.60;;;;;;5068520;28;20043;-68
2021/08/14 11:56:52;;;;;;;4.53;2.70;;;26.60;57.80;;;;;;5037234;28;20108;-67
2021/08/14 11:59:39;;;;;;;5.90;2.85;;;26.70;57.60;;;;;;5055980;28;20028;-69
2021/08/14 12:02:25;;;;;;;6.65;2.83;;;26.60;57.30;;;;;;5070533;28;20404;-68
2021/08/14 12:05:11;;;;;;;5.28;3.10;;;26.70;56.90;;;;;;5071618;28;20100;-66
2021/08/14 12:07:58;;;;;;;4.43;2.58;;;26.60;56.70;;;;;;5057356;28;20032;-69
2021/08/14 12:10:45;;;;;;;6.85;2.47;;;26.60;56.90;;;;;;5057055;28;20427;-67
2021/08/14 12:13:32;;;;;;;4.25;2.42;;;26.70;56.30;;;;;;5061811;28;20041;-67
2021/08/14 12:16:19;;;;;;;5.35;2.65;;;26.60;55.70;;;;;;5059420;28;20039;-67
2021/08/14 12:19:17;;;;;;;4.72;2.63;;;26.70;56.20;;;;;;5063639;28;20059;-67
2021/08/14 12:22:10;;;;;;;4.63;2.70;;;26.70;56.30;;;;;;5058722;28;20024;-67
2021/08/14 12:24:56;;;;;;;5.60;2.35;;;26.80;55.80;;;;;;5069847;28;20024;-67
2021/08/14 12:27:42;;;;;;;5.65;3.03;;;26.80;55.10;;;;;;5062216;28;20051;-67
2021/08/14 12:30:32;;;;;;;7.05;2.55;;;26.90;55.00;;;;;;5057417;28;20113;-67
2021/08/14 12:33:32;;;;;;;6.40;2.97;;;26.90;55.40;;;;;;5066889;28;20391;-66
2021/08/14 12:36:38;;;;;;;4.85;2.83;;;26.90;55.60;;;;;;5050584;28;20033;-68
2021/08/14 12:39:46;;;;;;;5.22;2.65;;;26.90;55.20;;;;;;5062196;28;20527;-68
2021/08/14 12:42:35;;;;;;;4.50;2.47;;;27.00;55.20;;;;;;5054783;28;20037;-67
2021/08/14 12:45:23;;;;;;;5.18;2.70;;;27.00;54.70;;;;;;5050806;28;20036;-68
2021/08/14 12:48:09;;;;;;;5.53;2.97;;;27.10;55.20;;;;;;5055345;28;20095;-68
2021/08/14 12:50:55;;;;;;;6.50;3.08;;;27.20;55.10;;;;;;5059027;28;20087;-68
2021/08/14 12:53:41;;;;;;;5.72;2.80;;;27.20;55.20;;;;;;5057680;28;20028;-67
2021/08/14 12:56:27;;;;;;;8.05;2.78;;;27.30;54.90;;;;;;5054223;28;20036;-69
2021/08/14 12:59:13;;;;;;;4.30;2.15;;;27.40;54.60;;;;;;5064761;28;20024;-67
2021/08/14 13:02:04;;;;;;;4.72;2.67;;;27.50;54.10;;;;;;5051701;28;20036;-67
2021/08/14 13:04:50;;;;;;;3.85;2.33;;;27.60;53.70;;;;;;5057362;28;20032;-67
2021/08/14 13:07:36;;;;;;;5.05;2.85;;;27.60;53.60;;;;;;5058858;28;20083;-66
2021/08/14 13:10:23;;;;;;;4.70;2.85;;;27.60;52.30;;;;;;5058964;28;20025;-67
2021/08/14 13:13:10;;;;;;;6.03;2.50;;;27.60;52.70;;;;;;5060054;28;20074;-67
2021/08/14 13:15:56;;;;;;;7.68;3.17;;;27.60;52.60;;;;;;5057264;28;20097;-66
2021/08/14 13:18:41;;;;;;;6.57;2.85;;;27.70;52.00;;;;;;5051269;28;20032;-67
2021/08/14 13:21:27;;;;;;;4.18;2.58;;;27.80;51.50;;;;;;5059172;28;20191;-67
2021/08/14 13:24:13;;;;;;;5.70;2.58;;;27.80;51.90;;;;;;5063049;28;20024;-67
2021/08/14 13:27:00;;;;;;;6.90;2.72;;;27.80;51.20;;;;;;5068011;28;20048;-67
2021/08/14 13:29:46;;;;;;;5.07;2.85;;;27.90;50.70;;;;;;5060014;28;20033;-67
2021/08/14 13:32:32;;;;;;;4.38;2.55;;;27.90;51.10;;;;;;5067386;28;20158;-67
2021/08/14 13:35:18;;;;;;;4.47;3.05;;;28.10;51.70;;;;;;5058809;28;20017;-67
2021/08/14 13:37:45;;;;;;;5.40;3.40;;;28.20;51.10;;;;;;5066866;28;20043;-66
2021/08/14 13:40:29;;;;;;;5.38;2.40;;;28.20;51.30;;;;;;5063010;28;20029;-66
2021/08/14 13:43:13;;;;;;;4.65;2.72;;;28.30;51.50;;;;;;5060447;28;20039;-67
2021/08/14 13:45:57;;;;;;;4.45;2.80;;;28.40;51.00;;;;;;5060258;28;20036;-67
2021/08/14 13:48:41;;;;;;;6.47;3.65;;;28.50;50.70;;;;;;5063850;28;20079;-66
2021/08/14 13:51:25;;;;;;;5.90;2.80;;;28.50;50.80;;;;;;5060918;28;20056;-67
2021/08/14 13:54:10;;;;;;;;;;;28.60;50.20;;;;;;5061664;28;20171;-68
2021/08/14 13:56:54;;;;;;;7.60;3.20;;;28.70;49.30;;;;;;5068816;28;19919;-68
2021/08/14 13:59:38;;;;;;;6.00;2.95;;;28.60;49.50;;;;;;5058601;28;20068;-68
2021/08/14 14:02:22;;;;;;;7.88;2.88;;;28.70;49.40;;;;;;5059946;28;20086;-69
2021/08/14 14:05:07;;;;;;;5.18;2.75;;;28.80;49.90;;;;;;5056684;28;20488;-70
2021/08/14 14:07:51;;;;;;;4.93;2.80;;;28.80;49.40;;;;;;5056110;28;20077;-69
2021/08/14 14:10:35;;;;;;;5.55;2.85;;;28.90;49.40;;;;;;5061444;28;20089;-70